Time;durP1;ratioP1;P1;durP2;ratioP2;P2;SDS_P1;SDS_P2;PMS_P1;PMS_P2;Temp;Humidity;BMP_temperature;BMP_pressure;BME280_temperature;BME280_humidity;BME280_pressure;Samples;Min_cycle;Max_cycle;Signal;HPM_P1;HPM_P2
2024/01/20 00:01:21;;;;;;;;;;;;;;;;;;5020837;28;59079;-73
2024/01/20 00:03:46;;;;;;;;;;;;;;;;;;5020189;28;60468;-72
2024/01/20 00:06:11;;;;;;;;;;;;;;;;;;5020539;28;59584;-75
2024/01/20 00:08:36;;;;;;;;;;;;;;;;;;5021157;28;59482;-74
2024/01/20 00:11:01;;;;;;;;;;;;;;;;;;5019320;28;59542;-73
2024/01/20 00:13:26;;;;;;;;;;;;;;;;;;5019339;28;59420;-73
2024/01/20 00:15:52;;;;;;;;;;;;;;;;;;5020647;28;61059;-72
2024/01/20 00:18:17;;;;;;;;;;;;;;;;;;5020996;28;59025;-72
2024/01/20 00:20:42;;;;;;;;;;;;;;;;;;5020393;28;59233;-71
2024/01/20 00:23:07;;;;;;;;;;;;;;;;;;5019893;27;60267;-71
2024/01/20 00:25:33;;;;;;;;;;;;;;;;;;5021417;27;60339;-70
2024/01/20 00:27:58;;;;;;;;;;;;;;;;;;5020233;28;59370;-71
2024/01/20 00:30:23;;;;;;;;;;;;;;;;;;5022486;28;60219;-69
2024/01/20 00:32:48;;;;;;;;;;;;;;;;;;5020950;28;59459;-71
2024/01/20 00:35:13;;;;;;;;;;;;;;;;;;5021475;28;59729;-71
2024/01/20 00:37:38;;;;;;;;;;;;;;;;;;5020632;28;59749;-71
2024/01/20 00:40:04;;;;;;;;;;;;;;;;;;5022064;28;59616;-70
2024/01/20 00:42:29;;;;;;;;;;;;;;;;;;5022512;28;60327;-70
2024/01/20 00:44:54;;;;;;;;;;;;;;;;;;5020825;28;59481;-70
2024/01/20 00:47:19;;;;;;;;;;;;;;;;;;5021425;28;60296;-70
2024/01/20 00:49:44;;;;;;;;;;;;;;;;;;5021673;28;60445;-71
2024/01/20 00:52:09;;;;;;;;;;;;;;;;;;5022314;28;59627;-71
2024/01/20 00:54:35;;;;;;;;;;;;;;;;;;5022889;28;59458;-72
2024/01/20 00:57:00;;;;;;;;;;;;;;;;;;5021229;28;59369;-73
2024/01/20 00:59:25;;;;;;;;;;;;;;;;;;5020758;28;59790;-73
2024/01/20 01:01:50;;;;;;;;;;;;;;;;;;5021903;28;59793;-73
2024/01/20 01:04:15;;;;;;;;;;;;;;;;;;5018289;27;59714;-71
2024/01/20 01:06:41;;;;;;;;;;;;;;;;;;5022726;28;59268;-69
2024/01/20 01:09:06;;;;;;;;;;;;;;;;;;5019499;28;60854;-71
2024/01/20 01:11:31;;;;;;;;;;;;;;;;;;5018111;28;59786;-70
2024/01/20 01:13:57;;;;;;;;;;;;;;;;;;5020409;28;61853;-70
2024/01/20 01:16:22;;;;;;;;;;;;;;;;;;5020202;28;59396;-70
2024/01/20 01:18:47;;;;;;;;;;;;;;;;;;5018043;28;59940;-71
2024/01/20 01:21:12;;;;;;;;;;;;;;;;;;5018842;28;61291;-71
2024/01/20 01:23:37;;;;;;;;;;;;;;;;;;5015914;28;60017;-70
2024/01/20 01:26:02;;;;;;;;;;;;;;;;;;5016495;27;59609;-70
2024/01/20 01:28:27;;;;;;;;;;;;;;;;;;5017549;28;59762;-70
2024/01/20 01:30:52;;;;;;;;;;;;;;;;;;5014972;28;59859;-70
2024/01/20 01:33:17;;;;;;;;;;;;;;;;;;5019233;28;59593;-70
2024/01/20 01:35:43;;;;;;;;;;;;;;;;;;5014621;28;59354;-71
2024/01/20 01:38:09;;;;;;;;;;;;;;;;;;5018697;28;59617;-71
2024/01/20 01:40:34;;;;;;;;;;;;;;;;;;5017927;28;60384;-70
2024/01/20 01:42:59;;;;;;;;;;;;;;;;;;5016771;28;59924;-71
2024/01/20 01:45:24;;;;;;;;;;;;;;;;;;5019410;28;77089;-70
2024/01/20 01:47:49;;;;;;;;;;;;;;;;;;5017679;28;61418;-71
2024/01/20 01:50:14;;;;;;;;;;;;;;;;;;5018105;28;59479;-71
2024/01/20 01:52:39;;;;;;;;;;;;;;;;;;5016970;28;59585;-70
2024/01/20 01:55:04;;;;;;;;;;;;;;;;;;5017624;28;60286;-71
2024/01/20 01:57:30;;;;;;;;;;;;;;;;;;5018950;28;60557;-70
2024/01/20 01:59:55;;;;;;;;;;;;;;;;;;5017036;28;60859;-70
2024/01/20 02:02:20;;;;;;;;;;;;;;;;;;5017690;28;59265;-70
2024/01/20 02:04:45;;;;;;;;;;;;;;;;;;5017747;28;59541;-70
2024/01/20 02:07:10;;;;;;;;;;;;;;;;;;5017933;28;60388;-70
2024/01/20 02:09:36;;;;;;;;;;;;;;;;;;5016924;28;59824;-70
2024/01/20 02:12:01;;;;;;;;;;;;;;;;;;5016399;28;59427;-71
2024/01/20 02:14:26;;;;;;;;;;;;;;;;;;5016978;28;61444;-70
2024/01/20 02:16:51;;;;;;;;;;;;;;;;;;5020645;28;59561;-71
2024/01/20 02:19:16;;;;;;;;;;;;;;;;;;5021668;28;60960;-71
2024/01/20 02:21:41;;;;;;;;;;;;;;;;;;5019351;28;59396;-70
2024/01/20 02:24:06;;;;;;;;;;;;;;;;;;5019006;28;59690;-71
2024/01/20 02:26:31;;;;;;;;;;;;;;;;;;5020263;28;61321;-71
2024/01/20 02:28:56;;;;;;;;;;;;;;;;;;5018843;28;59416;-70
2024/01/20 02:31:21;;;;;;;;;;;;;;;;;;5020776;28;59212;-71
2024/01/20 02:33:46;;;;;;;;;;;;;;;;;;5019682;28;61534;-71
2024/01/20 02:36:12;;;;;;;;;;;;;;;;;;5018749;28;60264;-72
2024/01/20 02:38:37;;;;;;;;;;;;;;;;;;5020654;28;59977;-71
2024/01/20 02:41:02;;;;;;;;;;;;;;;;;;5019915;28;59480;-71
2024/01/20 02:43:27;;;;;;;;;;;;;;;;;;5019525;28;59698;-71
2024/01/20 02:45:52;;;;;;;;;;;;;;;;;;5020421;28;60259;-71
2024/01/20 02:48:17;;;;;;;;;;;;;;;;;;5022475;28;59666;-71
2024/01/20 02:50:42;;;;;;;;;;;;;;;;;;5020261;27;59806;-71
2024/01/20 02:53:07;;;;;;;;;;;;;;;;;;5020170;28;59700;-71
2024/01/20 02:55:32;;;;;;;;;;;;;;;;;;5018443;28;59158;-70
2024/01/20 02:57:57;;;;;;;;;;;;;;;;;;5021142;28;59517;-71
2024/01/20 03:00:22;;;;;;;;;;;;;;;;;;5021395;28;60740;-70
2024/01/20 03:02:48;;;;;;;;;;;;;;;;;;5020545;27;59532;-71
2024/01/20 03:05:13;;;;;;;;;;;;;;;;;;5019517;28;60562;-71
2024/01/20 03:07:38;;;;;;;;;;;;;;;;;;5018858;28;59335;-71
2024/01/20 03:10:03;;;;;;;;;;;;;;;;;;5020091;28;59335;-71
2024/01/20 03:12:28;;;;;;;;;;;;;;;;;;5019771;28;62041;-70
2024/01/20 03:14:54;;;;;;;;;;;;;;;;;;5019635;28;59606;-70
2024/01/20 03:17:19;;;;;;;;;;;;;;;;;;5021840;28;59381;-70
2024/01/20 03:19:44;;;;;;;;;;;;;;;;;;5019349;28;60593;-70
2024/01/20 03:22:09;;;;;;;;;;;;;;;;;;5021664;28;59010;-70
2024/01/20 03:24:34;;;;;;;;;;;;;;;;;;5022171;28;60747;-70
2024/01/20 03:26:59;;;;;;;;;;;;;;;;;;5019848;27;59864;-70
2024/01/20 03:29:24;;;;;;;;;;;;;;;;;;5022652;27;59643;-70
2024/01/20 03:31:49;;;;;;;;;;;;;;;;;;5021496;28;61129;-70
2024/01/20 03:34:15;;;;;;;;;;;;;;;;;;5021304;27;59619;-70
2024/01/20 03:36:40;;;;;;;;;;;;;;;;;;5021468;28;59503;-70
2024/01/20 03:39:05;;;;;;;;;;;;;;;;;;5021972;28;61104;-70
2024/01/20 03:41:30;;;;;;;;;;;;;;;;;;5021272;28;59557;-70
2024/01/20 03:43:56;;;;;;;;;;;;;;;;;;5020208;28;60273;-69
2024/01/20 03:46:21;;;;;;;;;;;;;;;;;;5020447;28;59317;-70
2024/01/20 03:48:46;;;;;;;;;;;;;;;;;;5022156;27;59537;-70
2024/01/20 03:51:11;;;;;;;;;;;;;;;;;;5021476;28;60388;-70
2024/01/20 03:53:36;;;;;;;;;;;;;;;;;;5019073;28;59075;-70
2024/01/20 03:56:01;;;;;;;;;;;;;;;;;;5021677;28;59686;-70
2024/01/20 03:58:26;;;;;;;;;;;;;;;;;;5020581;28;59749;-69
2024/01/20 04:00:51;;;;;;;;;;;;;;;;;;5019085;28;59185;-70
2024/01/20 04:03:16;;;;;;;;;;;;;;;;;;5022318;28;60128;-70
2024/01/20 04:05:41;;;;;;;;;;;;;;;;;;5018342;28;59745;-69
2024/01/20 04:08:06;;;;;;;;;;;;;;;;;;5017962;28;59606;-70
2024/01/20 04:10:31;;;;;;;;;;;;;;;;;;5021697;28;60100;-69
2024/01/20 04:12:57;;;;;;;;;;;;;;;;;;5018414;28;59749;-70
2024/01/20 04:15:22;;;;;;;;;;;;;;;;;;5019653;28;59363;-69
2024/01/20 04:17:47;;;;;;;;;;;;;;;;;;5019791;28;60407;-69
2024/01/20 04:20:12;;;;;;;;;;;;;;;;;;5019919;28;59629;-69
2024/01/20 04:22:37;;;;;;;;;;;;;;;;;;5020511;28;59230;-70
2024/01/20 04:25:02;;;;;;;;;;;;;;;;;;5019399;27;59444;-71
2024/01/20 04:27:29;;;;;;;;;;;;;;;;;;5018733;28;60484;-70
2024/01/20 04:29:54;;;;;;;;;;;;;;;;;;5019009;28;60678;-70
2024/01/20 04:32:19;;;;;;;;;;;;;;;;;;5017713;28;59551;-70
2024/01/20 04:34:44;;;;;;;;;;;;;;;;;;5019243;28;59199;-70
2024/01/20 04:37:10;;;;;;;;;;;;;;;;;;5021255;28;60192;-69
2024/01/20 04:39:35;;;;;;;;;;;;;;;;;;5019513;28;59720;-69
2024/01/20 04:42:00;;;;;;;;;;;;;;;;;;5018034;28;59674;-70
2024/01/20 04:44:25;;;;;;;;;;;;;;;;;;5021124;28;60221;-70
2024/01/20 04:46:50;;;;;;;;;;;;;;;;;;5018938;28;59652;-70
2024/01/20 04:49:15;;;;;;;;;;;;;;;;;;5020116;28;60749;-70
2024/01/20 04:51:40;;;;;;;;;;;;;;;;;;5019511;28;59628;-70
2024/01/20 04:54:05;;;;;;;;;;;;;;;;;;5017939;28;59543;-70
2024/01/20 04:56:30;;;;;;;;;;;;;;;;;;5019489;27;60154;-70
2024/01/20 04:58:56;;;;;;;;;;;;;;;;;;5018994;28;60343;-73
2024/01/20 05:01:21;;;;;;;;;;;;;;;;;;5020063;28;59897;-70
2024/01/20 05:03:46;;;;;;;;;;;;;;;;;;5018322;28;59734;-70
2024/01/20 05:06:11;;;;;;;;;;;;;;;;;;5021069;28;59272;-70
2024/01/20 05:08:36;;;;;;;;;;;;;;;;;;5019590;28;59396;-70
2024/01/20 05:11:01;;;;;;;;;;;;;;;;;;5018280;28;59290;-70
2024/01/20 05:13:26;;;;;;;;;;;;;;;;;;5017122;28;59662;-69
2024/01/20 05:15:53;;;;;;;;;;;;;;;;;;5019609;27;60446;-70
2024/01/20 05:18:18;;;;;;;;;;;;;;;;;;5018718;28;59646;-70
2024/01/20 05:20:43;;;;;;;;;;;;;;;;;;5019001;28;59558;-70
2024/01/20 05:23:08;;;;;;;;;;;;;;;;;;5018068;28;60419;-70
2024/01/20 05:25:33;;;;;;;;;;;;;;;;;;5018399;28;59650;-70
2024/01/20 05:27:59;;;;;;;;;;;;;;;;;;5018886;28;59239;-70
2024/01/20 05:30:24;;;;;;;;;;;;;;;;;;5019397;28;59457;-69
2024/01/20 05:32:49;;;;;;;;;;;;;;;;;;5018174;28;60446;-70
2024/01/20 05:35:14;;;;;;;;;;;;;;;;;;5018779;28;60154;-70
2024/01/20 05:37:39;;;;;;;;;;;;;;;;;;5017493;27;59554;-70
2024/01/20 05:40:05;;;;;;;;;;;;;;;;;;5020144;28;59729;-70
2024/01/20 05:42:30;;;;;;;;;;;;;;;;;;5017402;28;60467;-70
2024/01/20 05:44:55;;;;;;;;;;;;;;;;;;5016748;27;59506;-69
2024/01/20 05:47:20;;;;;;;;;;;;;;;;;;5018439;28;60404;-69
2024/01/20 05:49:45;;;;;;;;;;;;;;;;;;5020275;28;60267;-70
2024/01/20 05:52:10;;;;;;;;;;;;;;;;;;5022421;27;59131;-69
2024/01/20 05:54:36;;;;;;;;;;;;;;;;;;5020935;28;60514;-69
2024/01/20 05:57:01;;;;;;;;;;;;;;;;;;5019533;28;60039;-69
2024/01/20 05:59:26;;;;;;;;;;;;;;;;;;5021461;27;59204;-69
2024/01/20 06:01:51;;;;;;;;;;;;;;;;;;5022066;28;60954;-70
2024/01/20 06:04:16;;;;;;;;;;;;;;;;;;5021113;28;59771;-69
2024/01/20 06:06:41;;;;;;;;;;;;;;;;;;5023170;28;59230;-69
2024/01/20 06:09:06;;;;;;;;;;;;;;;;;;5022256;28;61205;-69
2024/01/20 06:11:32;;;;;;;;;;;;;;;;;;5020627;28;60446;-70
2024/01/20 06:13:57;;;;;;;;;;;;;;;;;;5021695;28;60785;-69
2024/01/20 06:16:22;;;;;;;;;;;;;;;;;;5019797;28;59527;-69
2024/01/20 06:18:47;;;;;;;;;;;;;;;;;;5020943;28;59340;-70
2024/01/20 06:21:13;;;;;;;;;;;;;;;;;;5022976;28;59770;-72
2024/01/20 06:23:38;;;;;;;;;;;;;;;;;;5019800;28;59440;-72
2024/01/20 06:26:03;;;;;;;;;;;;;;;;;;5020435;28;59496;-72
2024/01/20 06:28:28;;;;;;;;;;;;;;;;;;5021739;28;59840;-72
2024/01/20 06:30:53;;;;;;;;;;;;;;;;;;5019918;28;59913;-69
2024/01/20 06:33:18;;;;;;;;;;;;;;;;;;5023779;28;59614;-69
2024/01/20 06:35:43;;;;;;;;;;;;;;;;;;5021954;28;59805;-70
2024/01/20 06:38:08;;;;;;;;;;;;;;;;;;5021423;28;59199;-69
2024/01/20 06:40:33;;;;;;;;;;;;;;;;;;5021120;28;59854;-70
2024/01/20 06:42:58;;;;;;;;;;;;;;;;;;5017887;28;59784;-69
2024/01/20 06:45:23;;;;;;;;;;;;;;;;;;5023076;28;59206;-70
2024/01/20 06:47:48;;;;;;;;;;;;;;;;;;5019785;28;59344;-69
2024/01/20 06:50:15;;;;;;;;;;;;;;;;;;5020582;28;60037;-69
2024/01/20 06:52:40;;;;;;;;;;;;;;;;;;5023260;27;59524;-70
2024/01/20 06:55:05;;;;;;;;;;;;;;;;;;5019684;28;59751;-70
2024/01/20 06:57:30;;;;;;;;;;;;;;;;;;5023020;28;59461;-70
2024/01/20 06:59:55;;;;;;;;;;;;;;;;;;5021480;28;60813;-72
2024/01/20 07:02:20;;;;;;;;;;;;;;;;;;5020071;28;59487;-71
2024/01/20 07:04:45;;;;;;;;;;;;;;;;;;5020439;28;59692;-72
2024/01/20 07:07:11;;;;;;;;;;;;;;;;;;5020457;28;60198;-71
2024/01/20 07:09:36;;;;;;;;;;;;;;;;;;5022045;28;59811;-72
2024/01/20 07:12:01;;;;;;;;;;;;;;;;;;5021074;27;59738;-71
2024/01/20 07:14:26;;;;;;;;;;;;;;;;;;5021147;28;60147;-71
2024/01/20 07:16:51;;;;;;;;;;;;;;;;;;5018781;28;59240;-71
2024/01/20 07:19:16;;;;;;;;;;;;;;;;;;5019453;28;60500;-71
2024/01/20 07:21:41;;;;;;;;;;;;;;;;;;5019141;28;59541;-71
2024/01/20 07:24:06;;;;;;;;;;;;;;;;;;5016512;28;59742;-71
2024/01/20 07:26:31;;;;;;;;;;;;;;;;;;5018546;27;61871;-71
2024/01/20 07:28:57;;;;;;;;;;;;;;;;;;5020973;27;60176;-71
2024/01/20 07:31:22;;;;;;;;;;;;;;;;;;5020705;28;59622;-71
2024/01/20 07:33:47;;;;;;;;;;;;;;;;;;5012516;28;60593;-71
2024/01/20 07:36:12;;;;;;;;;;;;;;;;;;5018993;28;60198;-71
2024/01/20 07:38:38;;;;;;;;;;;;;;;;;;5019732;28;59412;-71
2024/01/20 07:41:03;;;;;;;;;;;;;;;;;;5019373;27;60755;-71
2024/01/20 07:43:28;;;;;;;;;;;;;;;;;;5018756;28;59732;-71
2024/01/20 07:45:54;;;;;;;;;;;;;;;;;;5020160;28;60992;-71
2024/01/20 07:48:19;;;;;;;;;;;;;;;;;;5018377;28;59876;-71
2024/01/20 07:50:44;;;;;;;;;;;;;;;;;;5018198;27;59254;-71
2024/01/20 07:53:09;;;;;;;;;;;;;;;;;;5019514;27;60264;-72
2024/01/20 07:55:34;;;;;;;;;;;;;;;;;;5018213;28;59760;-71
2024/01/20 07:57:59;;;;;;;;;;;;;;;;;;5019913;28;59696;-71
2024/01/20 08:00:24;;;;;;;;;;;;;;;;;;5019740;28;59178;-71
2024/01/20 08:02:49;;;;;;;;;;;;;;;;;;5017571;28;59761;-71
2024/01/20 08:05:14;;;;;;;;;;;;;;;;;;5017539;28;60631;-71
2024/01/20 08:07:39;;;;;;;;;;;;;;;;;;5018816;28;59967;-71
2024/01/20 08:10:04;;;;;;;;;;;;;;;;;;5018741;28;59285;-71
2024/01/20 08:12:30;;;;;;;;;;;;;;;;;;5017991;28;61055;-75
2024/01/20 08:14:55;;;;;;;;;;;;;;;;;;5018647;27;59704;-75
2024/01/20 08:17:20;;;;;;;;;;;;;;;;;;5020146;27;59047;-74
2024/01/20 08:19:45;;;;;;;;;;;;;;;;;;5019474;28;60127;-73
2024/01/20 08:22:12;;;;;;;;;;;;;;;;;;5021345;28;59137;-73
2024/01/20 08:24:37;;;;;;;;;;;;;;;;;;5020413;28;60710;-77
2024/01/20 08:27:02;;;;;;;;;;;;;;;;;;5018779;28;59951;-74
2024/01/20 08:29:28;;;;;;;;;;;;;;;;;;5019002;28;59194;-74
2024/01/20 08:31:53;;;;;;;;;;;;;;;;;;5018595;27;61161;-73
2024/01/20 08:34:18;;;;;;;;;;;;;;;;;;5019457;28;59498;-73
2024/01/20 08:36:43;;;;;;;;;;;;;;;;;;5022760;28;59423;-72
2024/01/20 08:39:08;;;;;;;;;;;;;;;;;;5020785;28;59744;-73
2024/01/20 08:41:33;;;;;;;;;;;;;;;;;;5018835;28;59545;-72
2024/01/20 08:43:58;;;;;;;;;;;;;;;;;;5019208;28;60304;-74
2024/01/20 08:46:25;;;;;;;;;;;;;;;;;;5016849;28;59227;-73
2024/01/20 08:48:50;;;;;;;;;;;;;;;;;;5019887;28;59636;-72
2024/01/20 08:51:15;;;;;;;;;;;;;;;;;;5021715;28;60180;-73
2024/01/20 08:53:40;;;;;;;;;;;;;;;;;;5014979;28;59628;-72
2024/01/20 08:56:05;;;;;;;;;;;;;;;;;;5018795;28;60007;-74
2024/01/20 08:58:30;;;;;;;;;;;;;;;;;;5021478;28;61875;-73
2024/01/20 09:00:55;;;;;;;;;;;;;;;;;;5018740;28;59378;-75
2024/01/20 09:03:20;;;;;;;;;;;;;;;;;;5021531;28;60239;-70
2024/01/20 09:05:45;;;;;;;;;;;;;;;;;;5020149;28;60180;-71
2024/01/20 09:08:11;;;;;;;;;;;;;;;;;;5020709;28;59624;-72
2024/01/20 09:10:36;;;;;;;;;;;;;;;;;;5021062;28;60437;-73
2024/01/20 09:13:01;;;;;;;;;;;;;;;;;;5019171;28;59796;-72
2024/01/20 09:15:26;;;;;;;;;;;;;;;;;;5020766;28;59265;-71
2024/01/20 09:17:51;;;;;;;;;;;;;;;;;;5018292;27;60451;-72
2024/01/20 09:20:17;;;;;;;;;;;;;;;;;;5020453;28;59550;-71
2024/01/20 09:22:42;;;;;;;;;;;;;;;;;;5018182;28;59294;-71
2024/01/20 09:25:07;;;;;;;;;;;;;;;;;;5021636;28;60054;-73
2024/01/20 09:27:32;;;;;;;;;;;;;;;;;;5021756;28;59558;-71
2024/01/20 09:29:57;;;;;;;;;;;;;;;;;;5022160;28;60851;-71
2024/01/20 09:32:22;;;;;;;;;;;;;;;;;;5021313;28;59572;-72
2024/01/20 09:34:47;;;;;;;;;;;;;;;;;;5019440;28;59436;-71
2024/01/20 09:37:13;;;;;;;;;;;;;;;;;;5020687;28;60226;-71
2024/01/20 09:39:38;;;;;;;;;;;;;;;;;;5022651;28;60392;-72
2024/01/20 09:42:03;;;;;;;;;;;;;;;;;;5024192;28;59408;-71
2024/01/20 09:44:28;;;;;;;;;;;;;;;;;;5023982;28;60695;-74
2024/01/20 09:46:53;;;;;;;;;;;;;;;;;;5024954;28;59217;-74
2024/01/20 09:49:18;;;;;;;;;;;;;;;;;;5020326;28;60940;-74
2024/01/20 09:51:43;;;;;;;;;;;;;;;;;;5019236;27;59406;-71
2024/01/20 09:54:09;;;;;;;;;;;;;;;;;;5023113;28;59588;-71
2024/01/20 09:56:34;;;;;;;;;;;;;;;;;;5023722;28;59777;-71
2024/01/20 09:59:03;;;;;;;;;;;;;;;;;;5021968;28;60386;-72
2024/01/20 10:01:28;;;;;;;;;;;;;;;;;;5024599;28;60445;-71
2024/01/20 10:03:53;;;;;;;;;;;;;;;;;;5022028;27;61179;-78
2024/01/20 10:06:18;;;;;;;;;;;;;;;;;;5024356;28;59696;-76
2024/01/20 10:08:43;;;;;;;;;;;;;;;;;;5022330;28;60807;-76
2024/01/20 10:11:08;;;;;;;;;;;;;;;;;;5021786;28;59433;-73
2024/01/20 10:13:33;;;;;;;;;;;;;;;;;;5023232;28;59715;-73
2024/01/20 10:15:58;;;;;;;;;;;;;;;;;;5021780;28;62280;-73
2024/01/20 10:18:23;;;;;;;;;;;;;;;;;;5022126;28;59971;-72
2024/01/20 10:20:49;;;;;;;;;;;;;;;;;;5023361;27;59847;-74
2024/01/20 10:23:14;;;;;;;;;;;;;;;;;;5024221;28;60421;-72
2024/01/20 10:25:39;;;;;;;;;;;;;;;;;;5022204;28;59285;-73
2024/01/20 10:28:04;;;;;;;;;;;;;;;;;;5024514;28;59191;-72
2024/01/20 10:30:30;;;;;;;;;;;;;;;;;;5024049;28;59167;-73
2024/01/20 10:32:55;;;;;;;;;;;;;;;;;;5022562;28;59515;-73
2024/01/20 10:35:20;;;;;;;;;;;;;;;;;;5023424;28;61624;-72
2024/01/20 10:37:51;;;;;;;;;;;;;;;;;;5021406;28;59338;-73
2024/01/20 10:40:16;;;;;;;;;;;;;;;;;;5023120;28;59242;-73
2024/01/20 10:42:41;;;;;;;;;;;;;;;;;;5021653;28;61937;-74
2024/01/20 10:45:06;;;;;;;;;;;;;;;;;;5023347;28;59449;-76
2024/01/20 10:47:31;;;;;;;;;;;;;;;;;;5021255;27;59229;-74
2024/01/20 10:49:56;;;;;;;;;;;;;;;;;;5022168;28;60278;-71
2024/01/20 10:52:21;;;;;;;;;;;;;;;;;;5021419;28;59604;-71
2024/01/20 10:54:46;;;;;;;;;;;;;;;;;;5021678;28;60351;-72
2024/01/20 10:57:12;;;;;;;;;;;;;;;;;;5018484;28;59597;-69
2024/01/20 10:59:37;;;;;;;;;;;;;;;;;;5020732;28;59750;-75
2024/01/20 11:02:02;;;;;;;;;;;;;;;;;;5019959;28;60630;-75
2024/01/20 11:04:27;;;;;;;;;;;;;;;;;;5020043;28;59607;-75
2024/01/20 11:06:53;;;;;;;;;;;;;;;;;;5020989;28;59257;-74
2024/01/20 11:09:19;;;;;;;;;;;;;;;;;;5022732;28;60707;-75
2024/01/20 11:11:44;;;;;;;;;;;;;;;;;;5021468;28;59410;-75
2024/01/20 11:14:09;;;;;;;;;;;;;;;;;;5021279;28;60347;-74
2024/01/20 11:16:34;;;;;;;;;;;;;;;;;;5021564;28;59673;-75
2024/01/20 11:18:59;;;;;;;;;;;;;;;;;;5022318;28;59033;-76
2024/01/20 11:21:24;;;;;;;;;;;;;;;;;;5022842;28;60270;-74
2024/01/20 11:23:49;;;;;;;;;;;;;;;;;;5022025;28;64838;-76
2024/01/20 11:26:14;;;;;;;;;;;;;;;;;;5021103;27;59812;-76
2024/01/20 11:28:42;;;;;;;;;;;;;;;;;;5023695;28;59506;-76
2024/01/20 11:31:07;;;;;;;;;;;;;;;;;;5022377;28;59526;-76
2024/01/20 11:33:33;;;;;;;;;;;;;;;;;;5024037;28;59559;-74
2024/01/20 11:35:58;;;;;;;;;;;;;;;;;;5020705;27;59492;-74
2024/01/20 11:38:23;;;;;;;;;;;;;;;;;;5023388;28;59535;-75
2024/01/20 11:40:48;;;;;;;;;;;;;;;;;;5020564;28;60495;-74
2024/01/20 11:43:14;;;;;;;;;;;;;;;;;;5018852;28;59774;-74
2024/01/20 11:45:39;;;;;;;;;;;;;;;;;;5023177;28;59573;-74
2024/01/20 11:48:04;;;;;;;;;;;;;;;;;;5020255;28;60001;-74
2024/01/20 11:50:29;;;;;;;;;;;;;;;;;;5020979;28;59977;-75
2024/01/20 11:52:54;;;;;;;;;;;;;;;;;;5023125;28;59143;-74
2024/01/20 11:55:19;;;;;;;;;;;;;;;;;;5018751;28;60720;-74
2024/01/20 11:57:44;;;;;;;;;;;;;;;;;;5021970;27;59245;-75
2024/01/20 12:00:11;;;;;;;;;;;;;;;;;;5023548;28;59705;-74
2024/01/20 12:02:36;;;;;;;;;;;;;;;;;;5021006;28;59709;-75
2024/01/20 12:05:01;;;;;;;;;;;;;;;;;;5021211;28;60686;-74
2024/01/20 12:07:26;;;;;;;;;;;;;;;;;;5022625;27;60034;-74
2024/01/20 12:09:51;;;;;;;;;;;;;;;;;;5021721;28;59493;-75
2024/01/20 12:12:16;;;;;;;;;;;;;;;;;;5021274;28;59159;-74
2024/01/20 12:14:41;;;;;;;;;;;;;;;;;;5020951;28;60899;-76
2024/01/20 12:17:06;;;;;;;;;;;;;;;;;;5022682;28;59036;-74
2024/01/20 12:19:32;;;;;;;;;;;;;;;;;;5020798;27;59294;-74
2024/01/20 12:21:57;;;;;;;;;;;;;;;;;;5020448;27;59499;-74
2024/01/20 12:24:22;;;;;;;;;;;;;;;;;;5022379;28;59233;-74
2024/01/20 12:26:47;;;;;;;;;;;;;;;;;;5022136;28;61226;-74
2024/01/20 12:29:13;;;;;;;;;;;;;;;;;;5021206;28;59470;-75
2024/01/20 12:31:38;;;;;;;;;;;;;;;;;;5020702;27;59366;-75
2024/01/20 12:34:03;;;;;;;;;;;;;;;;;;5020795;28;60361;-74
2024/01/20 12:36:28;;;;;;;;;;;;;;;;;;5022891;28;60118;-74
2024/01/20 12:38:53;;;;;;;;;;;;;;;;;;5021325;28;59567;-74
2024/01/20 12:41:18;;;;;;;;;;;;;;;;;;5020257;28;59192;-77
2024/01/20 12:43:47;;;;;;;;;;;;;;;;;;5020456;28;59182;-76
2024/01/20 12:46:12;;;;;;;;;;;;;;;;;;5021561;27;60674;-77
2024/01/20 12:48:37;;;;;;;;;;;;;;;;;;5022764;28;59570;-76
2024/01/20 12:51:02;;;;;;;;;;;;;;;;;;5021528;28;59463;-76
2024/01/20 12:53:27;;;;;;;;;;;;;;;;;;5019496;28;59465;-76
2024/01/20 12:55:52;;;;;;;;;;;;;;;;;;5018358;27;59219;-76
2024/01/20 12:58:17;;;;;;;;;;;;;;;;;;5023326;27;59196;-76
2024/01/20 13:00:42;;;;;;;;;;;;;;;;;;5021105;28;59202;-76
2024/01/20 13:03:07;;;;;;;;;;;;;;;;;;5022167;28;59480;-77
2024/01/20 13:05:33;;;;;;;;;;;;;;;;;;5019762;28;61140;-76
2024/01/20 13:07:58;;;;;;;;;;;;;;;;;;5019600;28;59696;-76
2024/01/20 13:10:23;;;;;;;;;;;;;;;;;;5021825;28;59154;-76
2024/01/20 13:12:48;;;;;;;;;;;;;;;;;;5019981;27;59668;-76
2024/01/20 13:15:13;;;;;;;;;;;;;;;;;;5021457;28;60215;-77
2024/01/20 13:17:38;;;;;;;;;;;;;;;;;;5021655;28;59190;-76
2024/01/20 13:20:03;;;;;;;;;;;;;;;;;;5019889;28;59963;-76
2024/01/20 13:22:28;;;;;;;;;;;;;;;;;;5021608;28;59656;-77
2024/01/20 13:24:56;;;;;;;;;;;;;;;;;;5021280;28;59353;-76
2024/01/20 13:27:23;;;;;;;;;;;;;;;;;;5018737;28;59684;-76
2024/01/20 13:29:48;;;;;;;;;;;;;;;;;;5021090;28;59737;-76
2024/01/20 13:32:13;;;;;;;;;;;;;;;;;;5022117;28;61266;-76
2024/01/20 13:34:38;;;;;;;;;;;;;;;;;;5019685;27;60278;-76
2024/01/20 13:37:04;;;;;;;;;;;;;;;;;;5022171;28;60465;-76
2024/01/20 13:39:29;;;;;;;;;;;;;;;;;;5022400;28;59451;-76
2024/01/20 13:41:54;;;;;;;;;;;;;;;;;;5020259;28;60270;-76
2024/01/20 13:44:19;;;;;;;;;;;;;;;;;;5018945;28;59889;-77
2024/01/20 13:46:44;;;;;;;;;;;;;;;;;;5021669;28;59761;-75
2024/01/20 13:49:09;;;;;;;;;;;;;;;;;;5020962;28;59229;-76
2024/01/20 13:51:34;;;;;;;;;;;;;;;;;;5022492;28;60094;-74
2024/01/20 13:53:59;;;;;;;;;;;;;;;;;;5018917;28;58750;-74
2024/01/20 13:56:25;;;;;;;;;;;;;;;;;;5022143;28;59408;-74
2024/01/20 13:58:51;;;;;;;;;;;;;;;;;;5018180;28;60858;-75
2024/01/20 14:01:21;;;;;;;;;;;;;;;;;;5021916;28;58906;-73
2024/01/20 14:03:46;;;;;;;;;;;;;;;;;;5019209;27;59953;-74
2024/01/20 14:06:11;;;;;;;;;;;;;;;;;;5021092;28;59875;-75
2024/01/20 14:08:36;;;;;;;;;;;;;;;;;;5019175;28;58721;-74
2024/01/20 14:11:01;;;;;;;;;;;;;;;;;;5022155;28;61111;-74
2024/01/20 14:13:26;;;;;;;;;;;;;;;;;;5021023;27;59526;-75
2024/01/20 14:15:52;;;;;;;;;;;;;;;;;;5023122;27;59461;-75
2024/01/20 14:18:17;;;;;;;;;;;;;;;;;;5025080;28;60197;-74
2024/01/20 14:20:42;;;;;;;;;;;;;;;;;;5023395;27;59479;-75
2024/01/20 14:23:07;;;;;;;;;;;;;;;;;;5024716;27;59143;-74
2024/01/20 14:25:32;;;;;;;;;;;;;;;;;;5022405;28;59612;-74
2024/01/20 14:28:00;;;;;;;;;;;;;;;;;;5022544;28;59627;-75
2024/01/20 14:30:25;;;;;;;;;;;;;;;;;;5024947;28;60228;-75
2024/01/20 14:32:50;;;;;;;;;;;;;;;;;;5023564;27;60705;-75
2024/01/20 14:35:15;;;;;;;;;;;;;;;;;;5021201;28;59416;-75
2024/01/20 14:37:40;;;;;;;;;;;;;;;;;;5022966;28;59746;-75
2024/01/20 14:40:06;;;;;;;;;;;;;;;;;;5022530;28;59569;-75
2024/01/20 14:42:31;;;;;;;;;;;;;;;;;;5022616;28;59363;-74
2024/01/20 14:44:56;;;;;;;;;;;;;;;;;;5024465;28;59408;-75
2024/01/20 14:47:21;;;;;;;;;;;;;;;;;;5023685;28;59152;-74
2024/01/20 14:49:46;;;;;;;;;;;;;;;;;;5023862;27;60154;-74
2024/01/20 14:52:12;;;;;;;;;;;;;;;;;;5021665;27;59408;-74
2024/01/20 14:54:38;;;;;;;;;;;;;;;;;;5022693;28;59543;-76
2024/01/20 14:57:03;;;;;;;;;;;;;;;;;;5019721;28;61433;-76
2024/01/20 14:59:28;;;;;;;;;;;;;;;;;;5022553;28;59362;-76
2024/01/20 15:01:54;;;;;;;;;;;;;;;;;;5021385;27;59634;-76
2024/01/20 15:04:19;;;;;;;;;;;;;;;;;;5023091;28;60017;-77
2024/01/20 15:06:44;;;;;;;;;;;;;;;;;;5023852;28;59466;-75
2024/01/20 15:09:09;;;;;;;;;;;;;;;;;;5023343;28;62175;-76
2024/01/20 15:11:34;;;;;;;;;;;;;;;;;;5021298;28;59799;-75
2024/01/20 15:14:00;;;;;;;;;;;;;;;;;;5020482;27;59789;-76
2024/01/20 15:16:25;;;;;;;;;;;;;;;;;;5022306;27;60495;-74
2024/01/20 15:18:50;;;;;;;;;;;;;;;;;;5020231;27;59833;-76
2024/01/20 15:21:16;;;;;;;;;;;;;;;;;;5021904;28;59146;-78
2024/01/20 15:23:41;;;;;;;;;;;;;;;;;;5021810;28;61244;-75
2024/01/20 15:26:06;;;;;;;;;;;;;;;;;;5021480;28;60315;-75
2024/01/20 15:28:31;;;;;;;;;;;;;;;;;;5020808;28;60155;-76
2024/01/20 15:30:56;;;;;;;;;;;;;;;;;;5019031;28;59857;-72
2024/01/20 15:33:21;;;;;;;;;;;;;;;;;;5018071;28;59430;-73
2024/01/20 15:35:47;;;;;;;;;;;;;;;;;;5018548;28;59469;-70
2024/01/20 15:38:12;;;;;;;;;;;;;;;;;;5018078;27;60395;-73
2024/01/20 15:40:37;;;;;;;;;;;;;;;;;;5021394;27;59298;-72
2024/01/20 15:43:02;;;;;;;;;;;;;;;;;;5021155;28;59399;-74
2024/01/20 15:45:27;;;;;;;;;;;;;;;;;;5023853;28;60154;-74
2024/01/20 15:47:52;;;;;;;;;;;;;;;;;;5021953;28;59598;-75
2024/01/20 15:50:17;;;;;;;;;;;;;;;;;;5021497;28;59695;-71
2024/01/20 15:52:42;;;;;;;;;;;;;;;;;;5021251;28;59507;-72
2024/01/20 15:55:08;;;;;;;;;;;;;;;;;;5018053;27;59219;-74
2024/01/20 15:57:33;;;;;;;;;;;;;;;;;;5023233;28;60413;-72
2024/01/20 15:59:58;;;;;;;;;;;;;;;;;;5022805;28;59277;-72
2024/01/20 16:02:23;;;;;;;;;;;;;;;;;;5022556;28;59695;-72
2024/01/20 16:04:48;;;;;;;;;;;;;;;;;;5019706;28;59355;-71
2024/01/20 16:07:13;;;;;;;;;;;;;;;;;;5022990;28;59300;-70
2024/01/20 16:09:39;;;;;;;;;;;;;;;;;;5021760;28;60642;-70
2024/01/20 16:12:04;;;;;;;;;;;;;;;;;;5022123;28;59307;-71
2024/01/20 16:14:29;;;;;;;;;;;;;;;;;;5022599;28;60217;-71
2024/01/20 16:16:54;;;;;;;;;;;;;;;;;;5018907;28;60060;-71
2024/01/20 16:19:19;;;;;;;;;;;;;;;;;;5022308;28;59788;-70
2024/01/20 16:21:45;;;;;;;;;;;;;;;;;;5020489;28;60284;-72
2024/01/20 16:24:11;;;;;;;;;;;;;;;;;;5020555;28;59230;-71
2024/01/20 16:26:36;;;;;;;;;;;;;;;;;;5018820;27;59625;-71
2024/01/20 16:29:01;;;;;;;;;;;;;;;;;;5022197;28;60167;-70
2024/01/20 16:31:27;;;;;;;;;;;;;;;;;;5020289;27;60430;-71